Time;durP1;ratioP1;P1;durP2;ratioP2;P2;SDS_P1;SDS_P2;PMS_P1;PMS_P2;Temp;Humidity;BMP_temperature;BMP_pressure;BME280_temperature;BME280_humidity;BME280_pressure;Samples;Min_cycle;Max_cycle;Signal;HPM_P1;HPM_P2
2022/08/28 00:00:52;;;;;;;9.13;5.45;;;26.00;79.80;;;;;;1924559;74;21008;-58
2022/08/28 00:03:22;;;;;;;9.23;4.85;;;25.90;79.80;;;;;;1924625;74;21031;-58
2022/08/28 00:05:51;;;;;;;12.68;4.92;;;25.90;79.80;;;;;;1924517;74;21047;-58
2022/08/28 00:08:20;;;;;;;10.35;6.05;;;25.90;79.90;;;;;;1924620;74;21066;-58
2022/08/28 00:10:49;;;;;;;13.43;5.80;;;25.90;79.80;;;;;;1924546;74;21048;-58
2022/08/28 00:13:21;;;;;;;11.57;5.37;;;25.90;79.90;;;;;;1924585;74;21028;-58
2022/08/28 00:15:53;;;;;;;8.08;4.90;;;25.90;79.80;;;;;;1924540;74;21008;-58
2022/08/28 00:18:22;;;;;;;14.65;5.85;;;25.90;79.90;;;;;;1924512;74;21020;-58
2022/08/28 00:20:52;;;;;;;9.85;5.67;;;25.90;79.90;;;;;;1924488;74;21024;-58
2022/08/28 00:23:22;;;;;;;12.15;6.15;;;25.80;79.80;;;;;;1924461;74;21047;-58
2022/08/28 00:25:52;;;;;;;8.40;4.62;;;25.80;79.90;;;;;;1924637;74;21008;-58
2022/08/28 00:28:21;;;;;;;11.12;5.60;;;25.80;80.00;;;;;;1924502;74;21132;-58
2022/08/28 00:30:53;;;;;;;6.83;4.80;;;25.80;80.00;;;;;;1924637;74;21579;-58
2022/08/28 00:33:26;;;;;;;10.15;5.72;;;25.70;80.00;;;;;;1924610;74;21047;-58
2022/08/28 00:35:55;;;;;;;11.75;5.65;;;25.70;80.20;;;;;;1924497;74;21474;-58
2022/08/28 00:38:26;;;;;;;8.95;5.20;;;25.60;80.20;;;;;;1924349;74;21093;-59
2022/08/28 00:40:58;;;;;;;10.50;5.72;;;25.60;80.40;;;;;;1922657;74;21063;-58
2022/08/28 00:43:37;;;;;;;9.45;5.17;;;25.50;80.50;;;;;;1922494;75;20995;-58
2022/08/28 00:46:09;;;;;;;12.25;6.20;;;25.60;80.60;;;;;;1922584;75;21101;-58
2022/08/28 00:48:38;;;;;;;11.22;5.78;;;25.60;80.50;;;;;;1921904;75;21023;-58
2022/08/28 00:53:58;;;;;;;10.45;4.87;;;25.50;80.50;;;;;;1922561;75;21016;-58
2022/08/28 00:56:29;;;;;;;9.80;5.20;;;25.50;80.60;;;;;;1922458;75;21024;-58
2022/08/28 00:59:01;;;;;;;11.40;4.90;;;25.50;80.70;;;;;;1922427;75;21109;-58
2022/08/28 01:01:31;;;;;;;7.17;5.12;;;25.50;80.70;;;;;;1922491;74;20991;-58
2022/08/28 01:04:01;;;;;;;10.30;5.30;;;25.50;80.50;;;;;;1922602;75;21051;-58
2022/08/28 01:06:30;;;;;;;8.15;4.47;;;25.50;80.40;;;;;;1922464;75;21012;-58
2022/08/28 01:09:00;;;;;;;12.18;5.20;;;25.50;80.50;;;;;;1922475;75;21028;-58
2022/08/28 01:11:31;;;;;;;10.90;5.20;;;25.50;80.60;;;;;;1922403;75;21106;-59
2022/08/28 01:14:01;;;;;;;8.98;5.05;;;25.50;80.60;;;;;;1922453;74;21012;-58
2022/08/28 01:16:32;;;;;;;11.70;5.40;;;25.50;80.50;;;;;;1922450;75;21051;-58
2022/08/28 01:19:02;;;;;;;7.20;4.92;;;25.40;80.40;;;;;;1922558;75;21047;-58
2022/08/28 01:21:37;;;;;;;6.65;5.05;;;25.40;80.60;;;;;;1922395;75;21176;-58
2022/08/28 01:24:13;;;;;;;7.50;4.92;;;25.30;80.70;;;;;;1922370;74;21125;-59
2022/08/28 01:26:43;;;;;;;12.65;5.00;;;25.30;80.90;;;;;;1922528;75;21047;-58
2022/08/28 01:29:13;;;;;;;9.20;5.53;;;25.30;80.80;;;;;;1922427;75;21039;-58
2022/08/28 01:31:42;;;;;;;7.58;4.85;;;25.40;80.80;;;;;;1922384;75;21016;-58
2022/08/28 01:34:13;;;;;;;10.82;5.72;;;25.40;80.80;;;;;;1922526;75;21043;-58
2022/08/28 01:36:42;;;;;;;14.87;5.22;;;25.30;80.70;;;;;;1922320;75;21040;-58
2022/08/28 01:39:14;;;;;;;9.03;5.25;;;25.30;80.80;;;;;;1922465;75;21012;-58
2022/08/28 01:41:47;;;;;;;11.28;5.75;;;25.30;80.90;;;;;;1920586;74;21028;-58
2022/08/28 01:44:17;;;;;;;10.43;5.10;;;25.40;81.10;;;;;;1920618;74;21040;-58
2022/08/28 01:46:47;;;;;;;12.25;5.60;;;25.40;81.10;;;;;;1920663;75;21000;-58
2022/08/28 01:49:16;;;;;;;9.60;5.55;;;25.40;81.00;;;;;;1920525;75;21000;-58
2022/08/28 01:51:46;;;;;;;10.13;5.10;;;25.40;81.00;;;;;;1920720;75;21114;-58
2022/08/28 01:54:15;;;;;;;10.25;5.20;;;25.40;80.80;;;;;;1920620;75;21196;-58
2022/08/28 01:56:45;;;;;;;9.75;5.97;;;25.40;80.90;;;;;;1920559;75;21032;-58
2022/08/28 01:59:15;;;;;;;8.83;4.75;;;25.40;80.80;;;;;;1920685;75;21129;-58
2022/08/28 02:01:44;;;;;;;10.32;5.50;;;25.30;80.80;;;;;;1920607;75;21113;-58
2022/08/28 02:04:15;;;;;;;14.70;4.72;;;25.30;81.00;;;;;;1920610;75;21035;-58
2022/08/28 02:06:44;;;;;;;9.15;5.67;;;25.30;81.10;;;;;;1920632;75;21094;-58
2022/08/28 02:09:14;;;;;;;11.65;5.25;;;25.30;81.10;;;;;;1920602;75;21007;-58
2022/08/28 02:11:43;;;;;;;14.20;5.60;;;25.30;81.20;;;;;;1920640;75;21105;-58
2022/08/28 02:14:13;;;;;;;7.90;4.92;;;25.30;81.20;;;;;;1920574;75;21035;-58
2022/08/28 02:16:42;;;;;;;8.03;4.90;;;25.30;81.20;;;;;;1920465;75;21152;-57
2022/08/28 02:19:12;;;;;;;14.43;5.65;;;25.30;81.20;;;;;;1920621;75;21075;-57
2022/08/28 02:21:41;;;;;;;10.80;5.08;;;25.30;81.10;;;;;;1920432;75;21321;-57
2022/08/28 02:24:10;;;;;;;14.98;5.97;;;25.30;80.90;;;;;;1920458;75;21144;-57
2022/08/28 02:26:40;;;;;;;12.90;6.30;;;25.30;80.90;;;;;;1920665;75;21016;-57
2022/08/28 02:29:10;;;;;;;10.98;5.87;;;25.30;81.00;;;;;;1920744;75;21136;-58
2022/08/28 02:31:39;;;;;;;11.63;6.10;;;25.20;81.00;;;;;;1920685;75;21008;-57
2022/08/28 02:34:10;;;;;;;9.00;5.45;;;25.20;80.90;;;;;;1920596;75;21027;-57
2022/08/28 02:36:41;;;;;;;9.18;6.00;;;25.10;81.00;;;;;;1920543;75;21098;-58
2022/08/28 02:39:11;;;;;;;9.48;4.80;;;25.10;81.30;;;;;;1920646;75;21023;-57
2022/08/28 02:41:41;;;;;;;9.90;6.30;;;25.00;81.60;;;;;;1928265;74;21051;-57
2022/08/28 02:44:10;;;;;;;10.20;5.40;;;25.10;81.70;;;;;;1930967;74;21089;-57
2022/08/28 02:46:40;;;;;;;11.57;6.62;;;25.10;81.60;;;;;;1931001;74;21081;-57
2022/08/28 02:49:09;;;;;;;13.25;5.60;;;25.10;81.50;;;;;;1930892;74;21007;-57
2022/08/28 02:51:38;;;;;;;9.63;5.50;;;25.10;81.50;;;;;;1930932;74;21434;-57
2022/08/28 02:54:08;;;;;;;10.93;5.72;;;25.10;81.50;;;;;;1930872;74;21047;-57
2022/08/28 02:56:37;;;;;;;16.05;6.78;;;25.10;81.50;;;;;;1930966;74;21020;-57
2022/08/28 02:59:07;;;;;;;8.23;5.90;;;25.10;81.40;;;;;;1930840;74;21133;-57
2022/08/28 03:01:37;;;;;;;12.65;5.60;;;25.10;81.40;;;;;;1930846;74;21025;-57
2022/08/28 03:04:06;;;;;;;7.92;5.05;;;25.10;81.60;;;;;;1930860;74;20996;-57
2022/08/28 03:06:35;;;;;;;12.23;5.75;;;25.10;81.80;;;;;;1930935;74;21037;-57
2022/08/28 03:09:05;;;;;;;14.78;6.08;;;25.10;81.80;;;;;;1930888;74;21036;-57
2022/08/28 03:11:35;;;;;;;12.28;6.30;;;25.10;81.70;;;;;;1930862;74;21103;-57
2022/08/28 03:14:05;;;;;;;10.30;5.78;;;25.10;81.50;;;;;;1930982;74;21015;-57
2022/08/28 03:16:34;;;;;;;9.43;5.85;;;25.00;81.60;;;;;;1930794;74;21164;-57
2022/08/28 03:19:04;;;;;;;9.53;5.03;;;25.00;81.90;;;;;;1930911;74;21007;-57
2022/08/28 03:21:33;;;;;;;8.93;6.58;;;24.90;82.10;;;;;;1930894;74;21109;-57
2022/08/28 03:24:03;;;;;;;8.53;5.87;;;24.90;82.20;;;;;;1930928;74;21055;-57
2022/08/28 03:26:32;;;;;;;10.18;5.75;;;24.90;82.20;;;;;;1930824;74;21063;-57
2022/08/28 03:29:02;;;;;;;13.72;5.90;;;25.00;82.10;;;;;;1930880;74;21128;-57
2022/08/28 03:31:34;;;;;;;11.75;5.83;;;25.00;82.00;;;;;;1930856;74;21079;-57
2022/08/28 03:34:03;;;;;;;8.78;5.97;;;25.10;82.00;;;;;;1930851;74;21169;-57
2022/08/28 03:36:33;;;;;;;10.53;5.17;;;25.10;82.00;;;;;;1930930;74;21062;-57
2022/08/28 03:39:04;;;;;;;11.15;6.35;;;25.20;82.00;;;;;;1930826;74;21059;-57
2022/08/28 03:41:34;;;;;;;14.20;6.47;;;25.30;81.70;;;;;;1930761;74;21619;-58
2022/08/28 03:44:04;;;;;;;12.33;5.62;;;25.30;81.80;;;;;;1930823;74;21109;-58
2022/08/28 03:46:33;;;;;;;12.90;6.33;;;25.30;82.10;;;;;;1930892;74;21020;-58
2022/08/28 03:49:04;;;;;;;17.98;6.25;;;25.30;81.50;;;;;;1930900;74;21149;-58
2022/08/28 03:51:34;;;;;;;8.43;5.80;;;25.40;81.60;;;;;;1930897;74;21007;-58
2022/08/28 03:54:04;;;;;;;8.95;6.03;;;25.40;81.50;;;;;;1930757;74;21035;-58
2022/08/28 03:56:33;;;;;;;11.75;6.67;;;25.40;81.40;;;;;;1931010;74;21012;-58
2022/08/28 03:59:04;;;;;;;13.35;6.37;;;25.50;81.40;;;;;;1930879;74;21047;-58
2022/08/28 04:01:33;;;;;;;14.20;6.85;;;25.50;81.40;;;;;;1930886;74;21106;-58
2022/08/28 04:04:03;;;;;;;14.30;6.30;;;25.50;81.40;;;;;;1931033;74;21469;-58
2022/08/28 04:06:33;;;;;;;12.58;6.75;;;25.50;81.40;;;;;;1930986;74;21156;-58
2022/08/28 04:09:02;;;;;;;13.25;6.62;;;25.50;81.60;;;;;;1930995;74;21101;-58
2022/08/28 04:11:33;;;;;;;13.62;6.78;;;25.50;82.30;;;;;;1930873;74;21035;-58
2022/08/28 04:14:02;;;;;;;13.25;6.85;;;25.50;81.80;;;;;;1930688;74;21066;-57
2022/08/28 04:16:32;;;;;;;14.23;6.08;;;25.60;82.00;;;;;;1930979;74;21109;-58
2022/08/28 04:19:01;;;;;;;17.15;6.95;;;25.60;81.90;;;;;;1930866;74;21043;-58
2022/08/28 04:21:30;;;;;;;18.25;6.50;;;25.70;81.80;;;;;;1930906;74;21031;-58
2022/08/28 04:24:00;;;;;;;18.20;7.30;;;25.90;81.70;;;;;;1930841;74;21027;-58
2022/08/28 04:26:30;;;;;;;14.93;6.33;;;26.00;81.70;;;;;;1930741;74;21105;-58
2022/08/28 04:28:59;;;;;;;14.83;6.83;;;26.00;81.60;;;;;;1930870;74;21109;-58
2022/08/28 04:31:28;;;;;;;14.20;6.05;;;26.10;81.60;;;;;;1930734;74;21003;-58
2022/08/28 04:33:59;;;;;;;18.67;7.28;;;26.20;81.60;;;;;;1930887;74;21070;-58
2022/08/28 04:36:29;;;;;;;14.25;6.20;;;26.30;81.50;;;;;;1930802;74;21051;-58
2022/08/28 04:38:59;;;;;;;18.37;6.65;;;26.40;81.50;;;;;;1930639;74;21063;-58
2022/08/28 04:41:29;;;;;;;16.17;7.03;;;26.50;81.40;;;;;;1930699;74;21117;-58
2022/08/28 04:43:59;;;;;;;11.65;5.62;;;26.60;81.30;;;;;;1930821;74;21047;-58
2022/08/28 04:46:28;;;;;;;16.62;6.53;;;26.70;81.10;;;;;;1930961;74;21020;-58
2022/08/28 04:48:58;;;;;;;13.90;6.65;;;26.80;81.00;;;;;;1930988;74;21035;-58
2022/08/28 04:51:28;;;;;;;12.40;6.28;;;26.90;81.00;;;;;;1930902;74;21020;-58
2022/08/28 04:53:58;;;;;;;16.15;6.35;;;26.90;80.90;;;;;;1930817;74;21011;-58
2022/08/28 04:56:27;;;;;;;11.35;6.00;;;27.00;80.80;;;;;;1930959;74;21093;-58
2022/08/28 04:58:57;;;;;;;10.48;5.83;;;27.00;80.70;;;;;;1930829;74;21028;-58
2022/08/28 05:01:26;;;;;;;12.25;6.50;;;27.10;80.60;;;;;;1930595;74;21047;-58
2022/08/28 05:03:58;;;;;;;19.80;6.83;;;27.20;80.50;;;;;;1930677;74;21089;-58
2022/08/28 05:06:30;;;;;;;14.00;6.40;;;27.30;80.40;;;;;;1930661;74;21015;-58
2022/08/28 05:09:00;;;;;;;22.22;6.42;;;27.40;80.20;;;;;;1930826;74;21027;-57
2022/08/28 05:11:31;;;;;;;11.88;5.75;;;27.50;80.10;;;;;;1930794;74;21004;-58
2022/08/28 05:14:00;;;;;;;14.00;6.28;;;27.60;80.00;;;;;;1930941;74;21034;-58
2022/08/28 05:16:30;;;;;;;13.93;6.10;;;27.70;79.90;;;;;;1930752;74;21003;-58
2022/08/28 05:19:03;;;;;;;10.53;6.62;;;27.70;79.80;;;;;;1930786;74;21097;-58
2022/08/28 05:21:32;;;;;;;11.83;5.20;;;27.80;79.70;;;;;;1930639;74;21031;-58
2022/08/28 05:24:01;;;;;;;16.90;5.75;;;27.90;79.60;;;;;;1930868;74;21023;-58
2022/08/28 05:26:31;;;;;;;15.70;5.45;;;28.00;79.40;;;;;;1930786;74;21031;-58
2022/08/28 05:29:00;;;;;;;11.33;5.33;;;28.10;79.20;;;;;;1930763;74;21008;-58
2022/08/28 05:31:31;;;;;;;14.65;6.75;;;28.20;78.90;;;;;;1930727;74;21023;-58
2022/08/28 05:34:02;;;;;;;20.17;5.70;;;28.30;78.70;;;;;;1930783;74;21125;-58
2022/08/28 05:36:34;;;;;;;16.62;6.12;;;28.30;78.50;;;;;;1930776;74;21031;-58
2022/08/28 05:39:06;;;;;;;17.15;5.85;;;28.30;78.50;;;;;;1930770;74;21046;-58
2022/08/28 05:41:36;;;;;;;15.25;6.10;;;28.40;78.40;;;;;;1930950;74;21052;-57
2022/08/28 05:44:08;;;;;;;16.20;6.10;;;28.40;78.10;;;;;;1924431;74;21097;-58
2022/08/28 05:46:40;;;;;;;10.68;5.15;;;28.50;77.90;;;;;;1924346;74;21514;-58
2022/08/28 05:49:09;;;;;;;16.93;5.75;;;28.60;77.60;;;;;;1924453;74;21109;-58
2022/08/28 05:51:40;;;;;;;13.85;5.65;;;28.60;77.50;;;;;;1924306;74;21199;-58
2022/08/28 05:54:11;;;;;;;15.95;6.35;;;28.60;77.30;;;;;;1924438;74;21428;-58
2022/08/28 05:56:41;;;;;;;12.85;5.53;;;28.70;77.80;;;;;;1924387;74;21032;-58
2022/08/28 05:59:11;;;;;;;16.97;6.20;;;28.80;77.20;;;;;;1924296;74;21008;-58
2022/08/28 06:01:44;;;;;;;17.42;6.22;;;28.80;77.10;;;;;;1924278;74;21195;-58
2022/08/28 06:04:21;;;;;;;15.98;6.15;;;28.90;76.90;;;;;;1924512;74;21043;-58
2022/08/28 06:06:50;;;;;;;16.60;5.40;;;29.00;76.80;;;;;;1924355;74;21015;-58
2022/08/28 06:09:28;;;;;;;12.20;5.85;;;29.00;76.60;;;;;;1924450;74;21044;-58
2022/08/28 06:11:59;;;;;;;12.98;5.33;;;29.10;76.50;;;;;;1924427;74;21117;-58
2022/08/28 06:14:29;;;;;;;13.83;6.15;;;29.20;76.30;;;;;;1924402;74;21016;-58
2022/08/28 06:16:59;;;;;;;13.78;5.85;;;29.20;76.10;;;;;;1924472;74;21031;-58
2022/08/28 06:19:30;;;;;;;13.83;5.15;;;29.20;76.00;;;;;;1924348;74;21048;-58
2022/08/28 06:22:01;;;;;;;13.03;6.15;;;29.30;75.80;;;;;;1924364;74;21032;-58
2022/08/28 06:24:32;;;;;;;14.75;5.87;;;29.30;75.60;;;;;;1924432;74;21031;-58
2022/08/28 06:27:01;;;;;;;10.48;5.45;;;29.30;75.50;;;;;;1924421;74;21019;-58
2022/08/28 06:29:31;;;;;;;14.15;5.75;;;29.30;75.60;;;;;;1924531;74;21031;-58
2022/08/28 06:32:03;;;;;;;9.95;5.25;;;29.30;75.70;;;;;;1924409;74;21101;-58
2022/08/28 06:34:32;;;;;;;15.40;5.53;;;29.40;75.50;;;;;;1924398;74;21035;-58
2022/08/28 06:37:02;;;;;;;13.43;5.40;;;29.40;75.50;;;;;;1924366;74;21109;-58
2022/08/28 06:39:31;;;;;;;12.50;5.35;;;29.40;75.30;;;;;;1924426;74;21117;-58
2022/08/28 06:42:01;;;;;;;12.45;5.83;;;29.30;75.10;;;;;;1924361;74;21007;-58
2022/08/28 06:44:31;;;;;;;14.78;4.97;;;29.30;75.30;;;;;;1930668;74;21024;-58
2022/08/28 06:47:00;;;;;;;9.85;5.80;;;29.30;75.40;;;;;;1930775;74;21175;-58
2022/08/28 06:49:30;;;;;;;12.10;5.25;;;29.30;75.40;;;;;;1930941;74;21023;-58
2022/08/28 06:51:59;;;;;;;10.13;5.35;;;29.30;75.50;;;;;;1930936;74;21086;-58
2022/08/28 06:54:29;;;;;;;12.93;6.12;;;29.20;75.40;;;;;;1930869;74;21003;-58
2022/08/28 06:56:59;;;;;;;8.73;5.53;;;29.20;75.50;;;;;;1930904;74;21024;-58
2022/08/28 06:59:28;;;;;;;11.10;6.03;;;29.20;75.70;;;;;;1930692;74;21027;-58
2022/08/28 07:01:57;;;;;;;16.20;5.90;;;29.10;75.70;;;;;;1930874;74;21047;-58
2022/08/28 07:04:27;;;;;;;13.03;5.08;;;29.10;75.80;;;;;;1930904;74;21101;-58
2022/08/28 07:06:57;;;;;;;8.88;4.75;;;29.10;75.90;;;;;;1930833;74;21063;-58
2022/08/28 07:09:26;;;;;;;30.70;6.25;;;29.10;75.80;;;;;;1930950;74;21054;-58
2022/08/28 07:11:56;;;;;;;17.32;6.30;;;29.10;75.90;;;;;;1930839;74;21137;-58
2022/08/28 07:14:25;;;;;;;13.00;6.10;;;29.10;76.00;;;;;;1930858;74;21023;-58
2022/08/28 07:16:55;;;;;;;16.70;5.60;;;29.10;76.10;;;;;;1930967;74;21051;-58
2022/08/28 07:19:24;;;;;;;14.05;5.42;;;29.10;76.00;;;;;;1930837;74;21082;-58
2022/08/28 07:21:54;;;;;;;8.15;4.90;;;29.10;75.80;;;;;;1930793;74;21093;-58
2022/08/28 07:24:23;;;;;;;14.23;5.20;;;29.10;75.60;;;;;;1930903;74;21039;-58
2022/08/28 07:26:53;;;;;;;14.90;6.15;;;29.10;75.30;;;;;;1930823;74;21107;-58
2022/08/28 07:29:22;;;;;;;11.70;5.22;;;29.20;75.20;;;;;;1930841;74;21032;-58
2022/08/28 07:31:55;;;;;;;11.43;5.15;;;29.20;75.30;;;;;;1930985;74;21007;-58
2022/08/28 07:34:24;;;;;;;15.38;5.55;;;29.20;75.20;;;;;;1930834;74;21458;-58
2022/08/28 07:36:54;;;;;;;9.15;4.90;;;29.20;75.90;;;;;;1930992;74;21031;-58
2022/08/28 07:39:24;;;;;;;12.82;5.97;;;29.30;75.30;;;;;;1930839;74;21035;-58
2022/08/28 07:41:53;;;;;;;14.87;5.62;;;29.30;75.20;;;;;;1930777;74;21070;-58
2022/08/28 07:47:10;;;;;;;10.50;5.97;;;29.40;74.90;;;;;;1924308;74;21043;-58
2022/08/28 07:49:40;;;;;;;7.72;4.85;;;29.50;74.90;;;;;;1924372;74;21035;-58
2022/08/28 07:52:11;;;;;;;10.90;5.75;;;29.50;74.70;;;;;;1924372;74;21019;-58
2022/08/28 07:54:40;;;;;;;9.80;5.42;;;29.50;74.50;;;;;;1924439;74;21093;-58
2022/08/28 07:57:09;;;;;;;15.85;6.03;;;29.50;74.30;;;;;;1924471;74;20997;-58
2022/08/28 07:59:41;;;;;;;12.33;5.67;;;29.50;74.10;;;;;;1924334;74;21028;-58
2022/08/28 08:02:10;;;;;;;11.30;5.55;;;29.50;74.00;;;;;;1924350;74;20992;-58
2022/08/28 08:04:40;;;;;;;14.50;5.37;;;29.60;73.90;;;;;;1924360;74;21148;-58
2022/08/28 08:07:11;;;;;;;14.83;5.67;;;29.70;73.90;;;;;;1924285;74;21015;-58
2022/08/28 08:09:42;;;;;;;15.25;6.10;;;29.70;73.90;;;;;;1924416;74;21000;-58
2022/08/28 08:12:12;;;;;;;13.43;5.15;;;29.80;74.00;;;;;;1924402;74;21024;-58
2022/08/28 08:14:43;;;;;;;12.07;6.70;;;29.90;73.70;;;;;;1924361;74;21078;-58
2022/08/28 08:17:12;;;;;;;9.18;5.72;;;30.10;73.20;;;;;;1924285;74;21031;-58
2022/08/28 08:19:41;;;;;;;7.83;4.67;;;30.20;73.40;;;;;;1924288;74;21097;-58
2022/08/28 08:22:11;;;;;;;16.32;5.42;;;30.30;72.20;;;;;;1924457;74;21466;-57
2022/08/28 08:24:41;;;;;;;11.43;5.15;;;30.40;71.10;;;;;;1924341;74;21035;-58
2022/08/28 08:27:10;;;;;;;17.52;5.35;;;30.50;70.40;;;;;;1924305;74;21032;-58
2022/08/28 08:29:40;;;;;;;13.85;5.55;;;30.50;70.10;;;;;;1924265;74;21035;-58
2022/08/28 08:32:11;;;;;;;12.85;5.00;;;30.60;69.90;;;;;;1924226;74;21031;-58
2022/08/28 08:34:48;;;;;;;14.60;5.65;;;30.70;69.60;;;;;;1924274;74;21032;-58
2022/08/28 08:37:17;;;;;;;18.17;6.08;;;30.80;69.40;;;;;;1924401;74;21051;-58
2022/08/28 08:39:47;;;;;;;13.90;6.08;;;30.90;69.20;;;;;;1924181;74;21433;-58
2022/08/28 08:42:25;;;;;;;18.70;6.33;;;30.90;68.80;;;;;;1924277;74;21067;-58
2022/08/28 08:44:57;;;;;;;15.43;5.53;;;31.10;68.70;;;;;;1927518;74;21075;-58
2022/08/28 08:47:32;;;;;;;12.85;5.20;;;31.20;68.10;;;;;;1930840;74;21132;-58
2022/08/28 08:50:10;;;;;;;11.68;4.72;;;31.30;67.80;;;;;;1930212;74;21125;-58
2022/08/28 08:52:46;;;;;;;15.32;5.05;;;31.40;67.40;;;;;;1930822;74;21035;-58
2022/08/28 08:55:24;;;;;;;12.00;4.75;;;31.50;67.20;;;;;;1930390;74;21536;-58
2022/08/28 08:58:14;;;;;;;16.17;5.60;;;31.60;66.60;;;;;;1930963;74;21501;-58
2022/08/28 09:00:58;;;;;;;8.60;4.37;;;31.70;66.00;;;;;;1930826;74;21051;-58
2022/08/28 09:03:46;;;;;;;10.20;4.85;;;31.80;65.80;;;;;;1898752;74;21031;-58
2022/08/28 09:06:21;;;;;;;14.43;5.55;;;31.90;65.90;;;;;;1930924;74;21158;-58
2022/08/28 09:08:53;;;;;;;14.15;5.80;;;31.90;65.90;;;;;;1926067;74;21531;-58
2022/08/28 09:11:46;;;;;;;9.35;4.92;;;31.80;65.80;;;;;;1929914;74;21127;-58
2022/08/28 09:14:18;;;;;;;15.35;5.90;;;31.70;65.80;;;;;;1930989;74;21027;-58
2022/08/28 09:16:48;;;;;;;9.40;5.80;;;31.60;66.10;;;;;;1902741;74;21047;-58
2022/08/28 09:19:19;;;;;;;19.70;6.67;;;31.50;66.20;;;;;;1930819;74;21012;-58
2022/08/28 09:21:50;;;;;;;17.50;6.37;;;31.60;66.10;;;;;;1930895;74;21756;-58
2022/08/28 09:24:26;;;;;;;12.05;5.42;;;31.60;66.00;;;;;;1930990;74;21063;-58
2022/08/28 09:27:07;;;;;;;14.68;6.22;;;31.60;66.00;;;;;;1930903;74;21044;-58
2022/08/28 09:29:41;;;;;;;11.55;5.55;;;31.80;66.00;;;;;;1930793;74;21075;-58
2022/08/28 09:32:24;;;;;;;10.15;5.60;;;31.80;65.50;;;;;;1931188;74;21110;-58
2022/08/28 09:35:05;;;;;;;14.85;5.85;;;32.00;65.10;;;;;;1922782;74;21451;-58
2022/08/28 09:37:36;;;;;;;10.15;5.58;;;32.10;64.70;;;;;;1930911;74;21126;-58
2022/08/28 09:40:20;;;;;;;10.35;5.25;;;32.10;64.70;;;;;;1930935;74;21035;-58
2022/08/28 09:46:00;;;;;;;9.45;4.70;;;32.10;63.30;;;;;;1925708;74;21133;-58
2022/08/28 09:48:42;;;;;;;5.72;4.28;;;31.90;63.30;;;;;;1924468;74;21105;-58
2022/08/28 09:51:14;;;;;;;12.20;4.42;;;31.90;63.20;;;;;;1924466;74;21028;-58
2022/08/28 09:53:46;;;;;;;12.55;4.95;;;31.80;63.20;;;;;;1922257;73;21043;-58
2022/08/28 09:56:27;;;;;;;11.93;4.78;;;31.80;63.10;;;;;;1914674;74;21158;-58
2022/08/28 09:59:08;;;;;;;10.03;4.92;;;31.80;62.90;;;;;;1916886;73;21091;-58
2022/08/28 10:01:52;;;;;;;11.90;5.12;;;31.90;62.80;;;;;;1924032;74;21097;-59
2022/08/28 10:04:30;;;;;;;12.88;5.40;;;31.90;62.70;;;;;;1924175;74;21090;-58
2022/08/28 10:07:24;;;;;;;13.93;5.30;;;31.90;62.70;;;;;;1923923;74;21097;-58
2022/08/28 10:10:05;;;;;;;10.25;4.97;;;31.90;62.70;;;;;;1924337;74;21051;-58
2022/08/28 10:12:58;;;;;;;17.70;5.50;;;32.00;62.80;;;;;;1915638;74;21090;-58
2022/08/28 10:15:28;;;;;;;13.20;5.35;;;32.00;63.30;;;;;;1924482;74;21028;-58
2022/08/28 10:18:28;;;;;;;10.98;5.62;;;32.00;62.90;;;;;;1924266;74;21623;-58
2022/08/28 10:21:06;;;;;;;18.62;7.20;;;32.00;63.10;;;;;;1924106;74;21091;-58
2022/08/28 10:23:44;;;;;;;13.93;6.15;;;32.10;63.00;;;;;;1924448;74;21019;-58
2022/08/28 10:26:53;;;;;;;13.88;5.87;;;32.10;62.60;;;;;;1924207;73;21035;-58
2022/08/28 10:29:37;;;;;;;13.85;6.35;;;32.10;62.70;;;;;;1924426;74;21121;-58
2022/08/28 10:32:29;;;;;;;9.08;5.65;;;32.10;62.60;;;;;;1924009;74;21525;-58
2022/08/28 10:35:10;;;;;;;12.68;5.22;;;32.10;62.60;;;;;;1924191;74;21125;-58
2022/08/28 10:37:57;;;;;;;11.48;4.78;;;32.10;62.60;;;;;;1924254;74;21023;-58
2022/08/28 10:40:29;;;;;;;17.07;4.87;;;32.10;62.50;;;;;;1924190;74;21137;-58
2022/08/28 10:43:07;;;;;;;10.40;5.15;;;32.10;62.10;;;;;;1923616;74;21506;-58
2022/08/28 10:45:39;;;;;;;16.30;5.40;;;32.20;61.70;;;;;;1924082;73;21129;-58
2022/08/28 10:48:20;;;;;;;15.63;5.20;;;32.40;61.40;;;;;;1924473;74;21059;-58
2022/08/28 10:50:55;;;;;;;11.25;4.60;;;32.50;60.90;;;;;;1924296;74;21039;-58
2022/08/28 10:53:30;;;;;;;12.50;5.05;;;32.50;60.00;;;;;;1924318;74;21090;-58
2022/08/28 10:56:01;;;;;;;14.25;5.22;;;32.60;59.80;;;;;;1921048;73;21036;-58
2022/08/28 10:58:33;;;;;;;12.20;4.75;;;32.70;59.80;;;;;;1924309;74;21090;-57
2022/08/28 11:01:08;;;;;;;9.75;4.70;;;32.80;59.50;;;;;;1924233;74;21064;-58
2022/08/28 11:03:48;;;;;;;13.13;4.55;;;32.90;59.10;;;;;;1924170;74;21051;-59
2022/08/28 11:06:29;;;;;;;12.47;4.42;;;32.90;58.70;;;;;;1923873;74;21032;-58
2022/08/28 11:09:23;;;;;;;10.38;4.45;;;33.00;58.60;;;;;;1924274;74;21023;-59
2022/08/28 11:11:43;;;;;;;13.20;5.28;;;33.10;58.10;;;;;;1920796;74;21125;-59
2022/08/28 11:14:24;;;;;;;11.65;5.05;;;33.10;57.70;;;;;;1896038;74;21035;-58
2022/08/28 11:16:56;;;;;;;10.03;5.42;;;33.10;57.60;;;;;;1897067;74;21031;-59
2022/08/28 11:19:28;;;;;;;10.35;5.30;;;33.00;58.00;;;;;;1924499;74;21126;-58
2022/08/28 11:22:08;;;;;;;9.00;4.55;;;32.90;58.40;;;;;;1924464;74;21501;-57
2022/08/28 11:24:43;;;;;;;12.55;5.30;;;32.90;58.70;;;;;;1924452;74;21000;-57
2022/08/28 11:27:35;;;;;;;11.20;4.80;;;32.90;58.80;;;;;;1923816;74;21032;-57
2022/08/28 11:30:15;;;;;;;11.88;5.92;;;32.90;58.50;;;;;;1924487;74;21164;-58
2022/08/28 11:32:53;;;;;;;13.00;5.55;;;33.00;58.50;;;;;;1924389;74;21118;-58
2022/08/28 11:35:34;;;;;;;9.20;5.28;;;33.10;58.50;;;;;;1924476;74;21040;-58
2022/08/28 11:38:04;;;;;;;9.38;5.72;;;33.20;58.30;;;;;;1924433;74;21543;-57
2022/08/28 11:40:37;;;;;;;12.00;5.37;;;33.30;58.10;;;;;;1924288;74;21110;-58
2022/08/28 11:43:19;;;;;;;14.07;5.00;;;33.20;58.50;;;;;;1924595;74;21016;-58
2022/08/28 11:45:58;;;;;;;14.30;5.08;;;33.30;58.80;;;;;;1924365;74;21552;-58
2022/08/28 11:48:41;;;;;;;12.05;5.28;;;33.30;58.40;;;;;;1924387;74;21121;-58
2022/08/28 11:51:25;;;;;;;12.53;5.17;;;33.40;58.30;;;;;;1924377;74;21121;-59
2022/08/28 11:54:00;;;;;;;;;;;33.40;57.60;;;;;;1927065;74;21036;-58
2022/08/28 11:56:35;;;;;;;14.83;6.55;;;33.40;58.00;;;;;;1924370;74;20090;-57
2022/08/28 11:59:23;;;;;;;10.95;5.33;;;33.30;58.30;;;;;;1924380;74;21016;-57
2022/08/28 12:01:53;;;;;;;11.78;5.33;;;33.30;58.00;;;;;;1923354;74;21146;-59
2022/08/28 12:04:24;;;;;;;11.55;5.03;;;33.30;58.10;;;;;;1924354;74;21442;-58
2022/08/28 12:06:56;;;;;;;13.95;5.78;;;33.40;58.00;;;;;;1924346;74;21047;-58
2022/08/28 12:09:45;;;;;;;9.40;5.55;;;33.40;58.00;;;;;;1921154;74;21098;-59
2022/08/28 12:12:22;;;;;;;11.12;5.47;;;33.40;58.00;;;;;;1924564;74;21028;-59
2022/08/28 12:14:58;;;;;;;8.18;5.22;;;33.40;58.00;;;;;;1922675;74;21109;-59
2022/08/28 12:17:29;;;;;;;15.93;5.60;;;33.40;58.20;;;;;;1924590;74;21162;-59
2022/08/28 12:20:13;;;;;;;15.98;5.20;;;33.40;58.30;;;;;;1923047;74;21121;-59
2022/08/28 12:22:51;;;;;;;14.93;5.10;;;33.50;58.20;;;;;;1923293;74;21086;-59
2022/08/28 12:25:29;;;;;;;13.35;4.55;;;33.50;58.60;;;;;;1924584;74;21508;-59
2022/08/28 12:28:01;;;;;;;16.75;5.53;;;33.50;58.80;;;;;;1894990;74;21166;-59
2022/08/28 12:30:34;;;;;;;14.00;5.55;;;33.40;59.10;;;;;;1924417;73;21121;-58
2022/08/28 12:33:08;;;;;;;11.45;5.30;;;33.20;59.20;;;;;;1924403;74;21130;-59
2022/08/28 12:35:38;;;;;;;13.90;4.90;;;33.10;59.40;;;;;;1922921;74;21103;-58
2022/08/28 12:38:08;;;;;;;12.25;4.90;;;32.90;59.60;;;;;;1924334;74;21055;-58
2022/08/28 12:40:53;;;;;;;17.73;7.25;;;32.80;59.80;;;;;;1924306;74;21031;-58
2022/08/28 12:43:31;;;;;;;11.05;5.40;;;32.70;60.40;;;;;;1924103;74;21024;-59
2022/08/28 12:46:06;;;;;;;17.55;5.60;;;32.70;60.70;;;;;;1925420;74;21176;-58
2022/08/28 12:48:53;;;;;;;14.68;5.40;;;32.70;60.70;;;;;;1930735;74;21118;-58
2022/08/28 12:51:28;;;;;;;15.00;5.12;;;32.70;60.60;;;;;;1930607;74;21047;-59
2022/08/28 12:54:02;;;;;;;17.95;5.35;;;32.70;60.60;;;;;;1930589;74;21334;-58
2022/08/28 12:56:34;;;;;;;12.00;4.53;;;32.60;60.70;;;;;;1930989;74;21469;-58
2022/08/28 12:59:27;;;;;;;18.48;5.40;;;32.50;61.00;;;;;;1930760;74;20995;-58
2022/08/28 13:02:05;;;;;;;18.55;4.80;;;32.40;61.40;;;;;;1860430;74;21027;-58
2022/08/28 13:04:38;;;;;;;18.00;5.78;;;32.30;61.50;;;;;;1930833;74;21016;-58
2022/08/28 13:07:12;;;;;;;13.08;4.20;;;32.10;61.70;;;;;;1930874;74;21117;-58
2022/08/28 13:09:50;;;;;;;16.65;5.15;;;32.10;62.20;;;;;;1930947;74;21035;-58
2022/08/28 13:12:25;;;;;;;18.05;4.20;;;32.10;62.40;;;;;;1930928;74;21121;-58
2022/08/28 13:14:55;;;;;;;15.23;5.45;;;32.20;62.10;;;;;;1922620;74;21047;-58